createdAt,value
2024-05-09T00:02:29.832Z,14.00
2024-05-09T00:05:20.979Z,14.00
2024-05-09T00:08:10.256Z,14.00
2024-05-09T00:10:58.629Z,14.00
2024-05-09T00:13:46.908Z,13.90
2024-05-09T00:16:35.006Z,13.90
2024-05-09T00:19:23.066Z,13.90
2024-05-09T00:22:14.048Z,14.00
2024-05-09T00:25:02.324Z,13.90
2024-05-09T00:27:50.610Z,14.00
2024-05-09T00:30:38.898Z,14.00
2024-05-09T00:33:26.966Z,13.90
2024-05-09T00:36:15.373Z,13.90
2024-05-09T00:39:06.712Z,13.90
2024-05-09T00:41:54.761Z,13.80
2024-05-09T00:44:42.675Z,13.80
2024-05-09T00:47:31.048Z,13.80
2024-05-09T00:50:25.872Z,13.80
2024-05-09T00:53:22.220Z,13.80
2024-05-09T00:56:14.476Z,13.80
2024-05-09T00:59:03.397Z,13.80
2024-05-09T01:01:52.569Z,13.70
2024-05-09T01:04:40.853Z,13.60
2024-05-09T01:07:29.155Z,13.70
2024-05-09T01:10:24.010Z,13.60
2024-05-09T01:13:18.975Z,13.60
2024-05-09T01:16:07.680Z,13.50
2024-05-09T01:18:56.358Z,13.50
2024-05-09T01:21:44.703Z,13.50
2024-05-09T01:24:35.299Z,13.40
2024-05-09T01:27:23.813Z,13.40
2024-05-09T01:30:17.285Z,13.30
2024-05-09T01:33:11.856Z,13.20
2024-05-09T01:36:01.061Z,13.20
2024-05-09T01:38:49.312Z,13.10
2024-05-09T01:41:40.208Z,13.10
2024-05-09T01:44:28.238Z,13.10
2024-05-09T01:47:16.856Z,13.00
2024-05-09T01:50:08.995Z,12.90
2024-05-09T01:52:59.268Z,12.90
2024-05-09T01:55:47.190Z,12.80
2024-05-09T01:58:38.673Z,12.70
2024-05-09T02:01:26.889Z,12.70
2024-05-09T02:04:15.362Z,12.70
2024-05-09T02:07:03.637Z,12.60
2024-05-09T02:09:54.293Z,12.60
2024-05-09T02:12:42.929Z,12.60
2024-05-09T02:15:33.686Z,12.50
2024-05-09T02:18:22.134Z,12.40
2024-05-09T02:21:11.555Z,12.40
2024-05-09T02:23:59.985Z,12.40
2024-05-09T02:26:48.047Z,12.30
2024-05-09T02:29:37.409Z,12.30
2024-05-09T02:32:28.414Z,12.20
2024-05-09T02:35:16.817Z,12.20
2024-05-09T02:38:05.150Z,12.10
2024-05-09T02:40:50.960Z,12.10
2024-05-09T02:43:39.098Z,12.00
2024-05-09T02:46:24.556Z,12.00
2024-05-09T02:49:15.909Z,11.90
2024-05-09T02:52:01.622Z,11.90
2024-05-09T02:54:49.959Z,11.90
2024-05-09T02:57:35.565Z,11.80
2024-05-09T03:00:29.914Z,11.80
2024-05-09T03:03:23.365Z,11.80
2024-05-09T03:06:14.572Z,11.80
2024-05-09T03:09:01.767Z,11.70
2024-05-09T03:11:49.968Z,11.60
2024-05-09T03:14:35.487Z,11.60
2024-05-09T03:17:24.035Z,11.50
2024-05-09T03:20:17.525Z,11.40
2024-05-09T03:23:14.180Z,11.40
2024-05-09T03:25:59.982Z,11.30
2024-05-09T03:28:48.609Z,11.30
2024-05-09T03:31:34.191Z,11.20
2024-05-09T03:34:22.384Z,11.20
2024-05-09T03:37:13.372Z,11.20
2024-05-09T03:40:07.345Z,11.10
2024-05-09T03:43:00.225Z,11.10
2024-05-09T03:45:49.897Z,11.00
2024-05-09T03:48:35.873Z,11.00
2024-05-09T03:51:24.278Z,10.90
2024-05-09T03:54:09.483Z,10.90
2024-05-09T03:57:00.447Z,10.80
2024-05-09T03:59:45.991Z,10.70
2024-05-09T04:02:34.207Z,10.80
2024-05-09T04:05:20.074Z,10.80
2024-05-09T04:08:08.949Z,10.80
2024-05-09T04:10:54.505Z,10.80
2024-05-09T04:13:45.805Z,10.80
2024-05-09T04:16:31.605Z,10.80
2024-05-09T04:19:20.278Z,10.70
2024-05-09T04:22:06.091Z,10.80
2024-05-09T04:24:55.493Z,10.80
2024-05-09T04:27:41.041Z,10.80
2024-05-09T04:30:37.957Z,10.80
2024-05-09T04:33:26.712Z,10.80
2024-05-09T04:36:15.451Z,10.80
2024-05-09T04:39:00.855Z,10.90
2024-05-09T04:41:49.173Z,10.90
2024-05-09T04:44:34.908Z,11.00
2024-05-09T04:47:26.467Z,11.00
2024-05-09T04:50:20.983Z,11.00
2024-05-09T04:53:16.434Z,11.10
2024-05-09T04:56:05.045Z,11.10
2024-05-09T04:58:50.868Z,11.10
2024-05-09T05:01:39.362Z,11.20
2024-05-09T05:04:28.043Z,11.30
2024-05-09T05:07:16.124Z,11.30
2024-05-09T05:10:01.749Z,11.40
2024-05-09T05:13:06.077Z,11.50
2024-05-09T05:15:57.442Z,11.50
2024-05-09T05:18:44.523Z,11.60
2024-05-09T05:21:35.267Z,11.70
2024-05-09T05:24:20.705Z,11.80
2024-05-09T05:27:09.328Z,11.90
2024-05-09T05:29:54.898Z,12.00
2024-05-09T05:32:43.064Z,12.10
2024-05-09T05:35:28.655Z,12.10
2024-05-09T05:38:23.760Z,12.20
2024-05-09T05:41:11.849Z,12.30
2024-05-09T05:44:00.435Z,12.40
2024-05-09T05:46:46.461Z,12.40
2024-05-09T05:49:34.634Z,12.50
2024-05-09T05:52:20.451Z,12.50
2024-05-09T05:55:11.628Z,12.60
2024-05-09T05:57:57.066Z,12.70
2024-05-09T06:00:45.385Z,12.70
2024-05-09T06:03:31.368Z,12.80
2024-05-09T06:06:19.790Z,12.90
2024-05-09T06:09:05.646Z,13.00
2024-05-09T06:11:56.771Z,13.00
2024-05-09T06:14:42.464Z,13.10
2024-05-09T06:17:31.202Z,13.20
2024-05-09T06:20:23.859Z,13.30
2024-05-09T06:23:20.038Z,13.40
2024-05-09T06:26:05.704Z,13.40
2024-05-09T06:28:56.565Z,13.40
2024-05-09T06:31:42.185Z,13.50
2024-05-09T06:34:30.371Z,13.60
2024-05-09T06:37:16.123Z,13.60
2024-05-09T06:40:05.545Z,13.70
2024-05-09T06:42:54.689Z,13.70
2024-05-09T06:45:46.763Z,13.80
2024-05-09T06:48:32.466Z,13.90
2024-05-09T06:51:21.188Z,13.90
2024-05-09T06:54:07.442Z,14.00
2024-05-09T06:56:55.497Z,14.10
2024-05-09T06:59:41.345Z,14.20
2024-05-09T07:02:32.300Z,14.20
2024-05-09T07:05:20.702Z,14.30
2024-05-09T07:08:07.400Z,14.30
2024-05-09T07:10:55.865Z,14.50
2024-05-09T07:13:41.507Z,14.50
2024-05-09T07:16:29.539Z,14.60
2024-05-09T07:19:17.901Z,14.70
2024-05-09T07:22:06.758Z,14.80
2024-05-09T07:24:53.696Z,14.80
2024-05-09T07:27:41.593Z,14.80
2024-05-09T07:30:33.038Z,14.90
2024-05-09T07:33:24.671Z,15.00
2024-05-09T07:36:13.416Z,15.10
2024-05-09T07:39:01.753Z,15.20
2024-05-09T07:41:47.055Z,15.40
2024-05-09T07:44:35.881Z,15.50
2024-05-09T07:48:32.087Z,15.60
2024-05-09T07:53:38.692Z,15.80
2024-05-09T07:56:29.092Z,16.00
2024-05-09T07:59:14.561Z,16.10
2024-05-09T08:02:02.717Z,16.30
2024-05-09T08:04:48.674Z,16.30
2024-05-09T08:07:39.278Z,16.30
2024-05-09T08:10:29.143Z,16.50
2024-05-09T08:13:17.739Z,16.60
2024-05-09T08:16:04.042Z,16.70
2024-05-09T08:18:52.575Z,16.80
2024-05-09T08:21:38.639Z,17.00
2024-05-09T08:24:27.170Z,17.20
2024-05-09T08:27:15.802Z,17.30
2024-05-09T08:30:04.889Z,17.50
2024-05-09T08:32:51.899Z,17.60
2024-05-09T08:35:40.349Z,17.70
2024-05-09T08:38:28.583Z,17.80
2024-05-09T08:41:14.692Z,17.90
2024-05-09T08:44:05.661Z,18.10
2024-05-09T08:46:52.359Z,18.30
2024-05-09T08:49:41.559Z,18.40
2024-05-09T08:52:27.157Z,18.50
2024-05-09T08:55:15.750Z,18.50
2024-05-09T08:58:04.257Z,18.60
2024-05-09T09:00:55.880Z,18.70
2024-05-09T09:03:43.646Z,18.80
2024-05-09T09:06:32.628Z,18.90
2024-05-09T09:09:18.486Z,19.00
2024-05-09T09:12:10.728Z,19.10
2024-05-09T09:14:56.408Z,19.20
2024-05-09T09:17:56.977Z,19.30
2024-05-09T09:20:45.616Z,19.30
2024-05-09T09:23:31.798Z,19.40
2024-05-09T09:26:21.032Z,19.50
2024-05-09T09:29:06.756Z,19.60
2024-05-09T09:32:00.950Z,19.60
2024-05-09T09:34:52.978Z,19.70
2024-05-09T09:37:38.676Z,19.90
2024-05-09T09:40:32.853Z,19.90
2024-05-09T09:43:22.425Z,19.90
2024-05-09T09:46:12.848Z,19.90
2024-05-09T09:49:01.502Z,20.10
2024-05-09T09:51:49.594Z,20.30
2024-05-09T09:54:38.117Z,20.60
2024-05-09T09:57:24.888Z,20.70
2024-05-09T10:00:21.116Z,21.00
2024-05-09T10:03:15.008Z,21.10
2024-05-09T10:06:01.015Z,21.20
2024-05-09T10:08:52.906Z,21.40
2024-05-09T10:11:45.194Z,21.40
2024-05-09T10:14:43.195Z,21.50
2024-05-09T10:17:28.919Z,21.50
2024-05-09T10:20:21.959Z,21.40
2024-05-09T10:23:27.209Z,21.30
2024-05-09T10:26:15.194Z,21.40
2024-05-09T10:29:04.685Z,21.40
2024-05-09T10:31:50.286Z,21.00
2024-05-09T10:34:39.194Z,20.80
2024-05-09T10:37:26.182Z,20.60
2024-05-09T10:40:26.107Z,20.30
2024-05-09T10:43:22.418Z,20.20
2024-05-09T10:46:12.082Z,20.10
2024-05-09T10:48:59.662Z,20.00
2024-05-09T10:51:50.598Z,20.00
2024-05-09T10:54:36.718Z,20.00
2024-05-09T10:57:27.027Z,20.00
2024-05-09T11:00:23.330Z,20.00
2024-05-09T11:03:19.105Z,20.10
2024-05-09T11:06:06.257Z,20.20
2024-05-09T11:08:54.745Z,20.20
2024-05-09T11:11:40.200Z,20.20
2024-05-09T11:14:28.772Z,20.40
2024-05-09T11:17:17.116Z,20.50
2024-05-09T11:20:13.546Z,20.60
2024-05-09T11:23:05.324Z,20.70
2024-05-09T11:25:54.676Z,20.70
2024-05-09T11:28:44.171Z,20.70
2024-05-09T11:31:32.322Z,20.90
2024-05-09T11:34:20.616Z,21.30
2024-05-09T11:37:09.045Z,21.90
2024-05-09T11:39:55.050Z,22.30
2024-05-09T11:42:43.086Z,22.60
2024-05-09T11:45:28.556Z,22.70
2024-05-09T11:48:16.954Z,22.90
2024-05-09T11:51:05.639Z,23.20
2024-05-09T11:53:53.570Z,23.50
2024-05-09T11:56:39.322Z,23.60
2024-05-09T11:59:28.051Z,23.30
2024-05-09T12:02:16.190Z,23.10
2024-05-09T12:05:01.791Z,22.90
2024-05-09T12:07:53.135Z,23.10
2024-05-09T12:10:38.575Z,23.40
2024-05-09T12:13:26.750Z,23.10
2024-05-09T12:16:12.593Z,22.80
2024-05-09T12:19:00.949Z,22.70
2024-05-09T12:21:46.813Z,22.50
2024-05-09T12:24:37.783Z,22.30
2024-05-09T12:27:23.118Z,22.00
2024-05-09T12:30:20.631Z,21.80
2024-05-09T12:33:12.726Z,21.70
2024-05-09T12:36:01.658Z,21.60
2024-05-09T12:38:47.006Z,21.50
2024-05-09T12:41:38.305Z,21.50
2024-05-09T12:44:23.552Z,21.50
2024-05-09T12:47:11.682Z,21.60
2024-05-09T12:49:59.798Z,21.70
2024-05-09T12:52:45.228Z,21.80
2024-05-09T12:55:41.436Z,22.00
2024-05-09T12:58:36.769Z,22.80
2024-05-09T13:01:25.046Z,23.50
2024-05-09T13:04:10.545Z,23.90
2024-05-09T13:06:58.874Z,24.40
2024-05-09T13:09:44.386Z,24.70
2024-05-09T13:12:32.845Z,25.10
2024-05-09T13:15:21.057Z,25.50
2024-05-09T13:18:09.627Z,25.50
2024-05-09T13:20:55.520Z,25.50
2024-05-09T13:23:43.718Z,25.90
2024-05-09T13:26:29.290Z,26.00
2024-05-09T13:29:17.342Z,25.40
2024-05-09T13:32:06.272Z,24.60
2024-05-09T13:34:54.841Z,24.90
2024-05-09T13:37:40.525Z,25.00
2024-05-09T13:40:33.617Z,24.40
2024-05-09T13:43:23.160Z,24.10
2024-05-09T13:46:12.339Z,23.80
2024-05-09T13:49:01.238Z,23.60
2024-05-09T13:51:49.385Z,23.60
2024-05-09T13:54:34.867Z,23.50
2024-05-09T13:57:23.340Z,23.20
2024-05-09T14:00:22.314Z,23.00
2024-05-09T14:03:19.857Z,22.90
2024-05-09T14:06:13.069Z,22.90
2024-05-09T14:09:01.409Z,22.80
2024-05-09T14:11:47.095Z,22.70
2024-05-09T14:14:35.301Z,22.70
2024-05-09T14:17:20.549Z,22.70
2024-05-09T14:20:14.070Z,22.90
2024-05-09T14:23:08.057Z,23.00
2024-05-09T14:25:54.251Z,23.20
2024-05-09T14:28:45.339Z,23.50
2024-05-09T14:31:31.033Z,24.20
2024-05-09T14:34:19.792Z,25.00
2024-05-09T14:37:05.737Z,25.70
2024-05-09T14:39:56.709Z,26.30
2024-05-09T14:42:42.681Z,26.80
2024-05-09T14:45:31.032Z,27.20
2024-05-09T14:48:16.760Z,27.60
2024-05-09T14:51:05.449Z,28.20
2024-05-09T14:53:50.942Z,28.40
2024-05-09T14:56:41.797Z,28.50
2024-05-09T14:59:27.531Z,28.30
2024-05-09T15:02:15.804Z,28.00
2024-05-09T15:05:04.060Z,27.80
2024-05-09T15:07:50.031Z,27.70
2024-05-09T15:10:38.641Z,28.00
2024-05-09T15:13:27.221Z,28.20
2024-05-09T15:16:15.269Z,28.30
2024-05-09T15:19:01.471Z,28.30
2024-05-09T15:21:50.085Z,28.20
2024-05-09T15:24:35.725Z,27.70
2024-05-09T15:27:23.948Z,27.40
2024-05-09T15:30:13.275Z,26.40
2024-05-09T15:33:05.915Z,25.80
2024-05-09T15:35:52.788Z,25.70
2024-05-09T15:38:40.855Z,25.60
2024-05-09T15:41:26.610Z,25.20
2024-05-09T15:44:15.215Z,24.90
2024-05-09T15:47:04.055Z,24.50
2024-05-09T15:49:52.390Z,24.30
2024-05-09T15:52:38.052Z,24.20
2024-05-09T15:55:27.571Z,24.10
2024-05-09T15:58:17.290Z,24.00
2024-05-09T16:01:03.379Z,23.90
2024-05-09T16:03:54.228Z,23.70
2024-05-09T16:06:40.018Z,23.70
2024-05-09T16:09:28.734Z,23.70
2024-05-09T16:12:14.122Z,23.60
2024-05-09T16:15:02.159Z,23.60
2024-05-09T16:17:48.055Z,23.50
2024-05-09T16:20:41.538Z,23.40
2024-05-09T16:23:29.191Z,23.20
2024-05-09T16:26:17.498Z,23.10
2024-05-09T16:29:03.418Z,23.10
2024-05-09T16:31:52.079Z,23.00
2024-05-09T16:34:37.853Z,22.90
2024-05-09T16:37:29.834Z,22.80
2024-05-09T16:40:25.133Z,22.80
2024-05-09T16:43:22.128Z,22.80
2024-05-09T16:46:08.907Z,22.80
2024-05-09T16:48:57.669Z,22.90
2024-05-09T16:51:43.495Z,22.70
2024-05-09T16:54:34.519Z,22.60
2024-05-09T16:57:20.284Z,22.50
2024-05-09T17:00:18.113Z,22.60
2024-05-09T17:03:14.301Z,22.50
2024-05-09T17:06:05.464Z,22.50
2024-05-09T17:08:51.143Z,22.60
2024-05-09T17:11:41.906Z,22.60
2024-05-09T17:14:30.485Z,22.60
2024-05-09T17:17:18.553Z,22.50
2024-05-09T17:20:10.458Z,22.40
2024-05-09T17:23:02.159Z,22.50
2024-05-09T17:25:50.572Z,22.50
2024-05-09T17:28:38.907Z,22.50
2024-05-09T17:31:27.403Z,22.50
2024-05-09T17:34:13.540Z,22.40
2024-05-09T17:37:02.924Z,22.40
2024-05-09T17:39:48.746Z,22.30
2024-05-09T17:42:36.632Z,22.30
2024-05-09T17:45:25.053Z,22.10
2024-05-09T17:48:13.928Z,22.00
2024-05-09T17:51:02.506Z,21.90
2024-05-09T17:53:48.068Z,21.80
2024-05-09T17:56:36.545Z,21.70
2024-05-09T17:59:21.955Z,21.50
2024-05-09T18:02:12.945Z,21.30
2024-05-09T18:04:58.891Z,21.20
2024-05-09T18:07:47.286Z,21.10
2024-05-09T18:10:37.166Z,21.00
2024-05-09T18:13:27.528Z,20.80
2024-05-09T18:16:13.489Z,20.70
2024-05-09T18:19:04.768Z,20.60
2024-05-09T18:21:50.687Z,20.60
2024-05-09T18:24:38.791Z,20.50
2024-05-09T18:27:24.778Z,20.40
2024-05-09T18:30:24.055Z,20.30
2024-05-09T18:33:16.939Z,20.10
2024-05-09T18:36:06.036Z,20.00
2024-05-09T18:38:54.080Z,19.90
2024-05-09T18:41:39.760Z,19.70
2024-05-09T18:44:28.047Z,19.60
2024-05-09T18:47:15.310Z,19.50
2024-05-09T18:50:08.963Z,19.40
2024-05-09T18:53:05.952Z,19.30
2024-05-09T18:55:54.300Z,19.20
2024-05-09T18:58:39.990Z,19.00
2024-05-09T19:01:28.749Z,19.00
2024-05-09T19:04:18.236Z,19.00
2024-05-09T19:07:09.404Z,19.00
2024-05-09T19:09:57.784Z,18.90
2024-05-09T19:12:46.399Z,18.90
2024-05-09T19:15:32.189Z,18.80
2024-05-09T19:18:20.496Z,18.70
2024-05-09T19:21:06.320Z,18.60
2024-05-09T19:23:55.503Z,18.60
2024-05-09T19:26:44.091Z,18.50
2024-05-09T19:29:31.999Z,18.40
2024-05-09T19:32:17.503Z,18.30
2024-05-09T19:35:05.652Z,18.30
2024-05-09T19:37:52.578Z,18.20
2024-05-09T19:40:43.157Z,18.20
2024-05-09T19:43:34.610Z,18.10
2024-05-09T19:46:24.315Z,18.10
2024-05-09T19:49:10.753Z,18.00
2024-05-09T19:51:59.671Z,17.90
2024-05-09T19:54:49.508Z,17.80
2024-05-09T19:57:37.738Z,17.80
2024-05-09T20:00:32.734Z,17.80
2024-05-09T20:03:24.291Z,17.70
2024-05-09T20:06:10.241Z,17.70
2024-05-09T20:08:59.577Z,17.70
2024-05-09T20:11:45.041Z,17.60
2024-05-09T20:14:33.523Z,17.50
2024-05-09T20:17:21.746Z,17.50
2024-05-09T20:20:20.117Z,17.40
2024-05-09T20:23:13.622Z,17.40
2024-05-09T20:26:01.836Z,17.30
2024-05-09T20:28:49.947Z,17.30
2024-05-09T20:31:35.313Z,17.30
2024-05-09T20:34:26.153Z,17.20
2024-05-09T20:37:11.803Z,17.10
2024-05-09T20:40:00.108Z,17.00
2024-05-09T20:42:45.526Z,16.90
2024-05-09T20:45:33.847Z,16.90
2024-05-09T20:48:19.454Z,16.80
2024-05-09T20:51:12.885Z,16.70
2024-05-09T20:53:58.376Z,16.70
2024-05-09T20:56:46.727Z,16.70
2024-05-09T20:59:32.332Z,16.60
2024-05-09T21:02:21.076Z,16.50
2024-05-09T21:05:07.571Z,16.50
2024-05-09T21:07:58.217Z,16.40
2024-05-09T21:10:44.145Z,16.30
2024-05-09T21:13:32.444Z,16.30
2024-05-09T21:16:18.280Z,16.20
2024-05-09T21:19:06.765Z,16.10
2024-05-09T21:21:53.453Z,16.20
2024-05-09T21:24:44.186Z,16.10
2024-05-09T21:27:30.016Z,16.00
2024-05-09T21:30:27.340Z,16.00
2024-05-09T21:33:19.165Z,16.00
2024-05-09T21:36:08.422Z,15.90
2024-05-09T21:38:54.095Z,15.80
2024-05-09T21:41:44.819Z,15.80
2024-05-09T21:44:30.327Z,15.80
2024-05-09T21:47:18.286Z,15.70
2024-05-09T21:50:06.101Z,15.70
2024-05-09T21:52:55.877Z,15.60
2024-05-09T21:55:41.609Z,15.60
2024-05-09T21:58:32.229Z,15.50
2024-05-09T22:01:18.682Z,15.50
2024-05-09T22:04:07.176Z,15.40
2024-05-09T22:06:52.587Z,15.40
2024-05-09T22:09:45.370Z,15.30
2024-05-09T22:12:31.139Z,15.20
2024-05-09T22:15:22.090Z,15.20
2024-05-09T22:18:09.151Z,15.10
2024-05-09T22:20:58.521Z,15.00
2024-05-09T22:23:44.367Z,15.00
2024-05-09T22:26:32.730Z,14.90
2024-05-09T22:29:18.101Z,14.80
2024-05-09T22:32:10.581Z,14.80
2024-05-09T22:34:57.015Z,14.70
2024-05-09T22:37:45.135Z,14.70
2024-05-09T22:40:39.143Z,14.60
2024-05-09T22:43:35.229Z,14.60
2024-05-09T22:46:20.503Z,14.50
2024-05-09T22:49:11.919Z,14.50
2024-05-09T22:51:57.607Z,14.50
2024-05-09T22:54:46.071Z,14.40
2024-05-09T22:57:34.702Z,14.40
2024-05-09T23:00:29.177Z,14.30
2024-05-09T23:03:21.700Z,14.30
2024-05-09T23:06:10.339Z,14.20
2024-05-09T23:08:58.824Z,14.20
2024-05-09T23:11:45.784Z,14.20
2024-05-09T23:14:34.692Z,14.10
2024-05-09T23:17:20.484Z,14.10
2024-05-09T23:20:11.640Z,14.00
2024-05-09T23:23:00.354Z,14.00
2024-05-09T23:25:48.556Z,13.90
2024-05-09T23:28:33.860Z,13.90
2024-05-09T23:31:22.133Z,13.80
2024-05-09T23:34:07.857Z,13.80
2024-05-09T23:36:58.452Z,13.70
2024-05-09T23:39:46.736Z,13.70
2024-05-09T23:42:34.984Z,13.70
2024-05-09T23:45:20.219Z,13.70
2024-05-09T23:48:09.464Z,13.70
2024-05-09T23:50:58.034Z,13.60
2024-05-09T23:53:44.829Z,13.50
2024-05-09T23:56:35.384Z,13.50
2024-05-09T23:59:20.646Z,13.50
